Terminal Aerodrome Forecast
Issued by NWS Flagstaff, AZ

Home | Current Version | Previous Version | Text Only | Print | Product List | Glossary On
Versions: 1 2 3 4 5 6 7 8 9 10 11 12 13 14 15 16 17
000
FTUS45 KFGZ 030535
TAFFLG
TAF
KFLG 030535Z 0306/0406 VRB05KT P6SM SCT080 BKN150
     FM030700 VRB03KT P6SM FEW080
     FM031930 22006KT P6SM VCTS SCT060CB BKN080
      TEMPO 0320/0324 VRB15G25KT 5SM TSRA BKN060CB=

USA.gov is the U.S. government's official web portal to all federal, state and local government web resources and services.